Helm, California
Current Conditions -  °F | °C
As of 9:56 AM on Thursday 30 Oct 2014 (Local Time) from KNLC Reporting Station
Broken Clouds Broken Clouds  
Wind Chill: 66°   Ceiling: 22000
Heat Index: 66°   Visibility: 7mi
Dew Point: 45°   Wind: 7mph
Humidity: 47%   Direction: 160°SSE
Pressure: 29.98"   Gusts: NA
Location:  36.53°N, 120.1°W
Report Text: KNLC 301656Z 16006KT 7SM FEW160 BKN220 19/07 A2998 RMK AO2 SLP152 VIS SE 2 1/2SM RH/46 T01890072 $
Loading
Personal Weather Stations






























Interactive Weather Map
Tropical Storm Tracking
New forecast layout! Learn more

10-Day Weather Forecast

Advertisements
Track Severe Weather on mobile